Latest Weather Observations for Sheoaks

IDV60901

Issued at 11:31 pm EST Saturday 29 April 2017 (issued every 10 minutes, with the page automatically refreshed every 10 minutes)

About weather observations | Map of Melbourne area stations | Latest observations for Melbourne area | Other Formats
Station Details ID: 087168 Name: SHEOAKS Lat: -37.91 Lon: 144.13 Height: 236.7 m
Data from the previous 72 hours. | See also: Recent months at Sheoaks
Date/Time
EST
Temp
°C
App
Temp
°C
Dew
Point
°C
Rel
Hum
%
Delta-T
°C
Wind Press
QNH
hPa
Press
MSL
hPa
Rain since
9am
mm
Dir  Spd
km/h
Gust
km/h
Spd
kts
Gust
kts
29/11:30pm 10.4 9.6 9.5 94 0.5 N 4 4 2 2 1023.6 1023.5 0.4
29/11:00pm 9.9 8.9 8.8 93 0.5 NW 4 6 2 3 1023.8 1023.7 0.4
29/10:30pm 9.4 7.9 8.3 93 0.5 NNW 6 7 3 4 1023.7 1023.6 0.4
29/10:00pm 9.2 7.6 7.8 91 0.7 NNW 6 6 3 3 1023.8 1023.7 0.4
29/09:30pm 10.1 8.3 8.0 87 1.0 WNW 7 9 4 5 1023.8 1023.7 0.4
29/09:00pm 10.6 8.9 8.5 87 1.0 WNW 7 9 4 5 1023.8 1023.7 0.4
29/08:30pm 11.2 9.9 9.1 87 1.1 WNW 6 7 3 4 1023.8 1023.7 0.4
29/08:00pm 11.3 10.1 9.4 88 1.0 WNW 6 6 3 3 1023.8 1023.7 0.4
29/07:30pm 11.2 9.9 9.1 87 1.1 WNW 6 7 3 4 1023.9 1023.8 0.4
29/07:00pm 11.9 10.6 9.1 83 1.4 WSW 6 7 3 4 1023.7 1023.6 0.4
29/06:30pm 12.5 11.3 9.5 82 1.5 WSW 6 9 3 5 1023.3 1023.2 0.4
29/06:00pm 12.9 11.5 9.5 80 1.7 SW 7 13 4 7 1023.3 1023.2 0.4
29/05:30pm 14.0 12.0 10.2 78 2.0 SW 11 17 6 9 1023.1 1023.0 0.4
29/05:00pm 14.8 12.5 10.6 76 2.2 SW 13 20 7 11 1022.9 1022.8 0.4
29/04:30pm 15.9 13.5 10.2 69 3.0 SW 13 19 7 10 1022.6 1022.4 0.4
29/04:00pm 16.4 13.6 11.3 72 2.8 SW 17 26 9 14 1022.4 1022.2 0.4
29/03:30pm 16.3 13.4 9.7 65 3.5 WSW 15 24 8 13 1022.3 1022.1 0.4
29/03:00pm 16.0 13.5 11.2 73 2.6 WSW 15 26 8 14 1022.2 1022.0 0.4
29/02:30pm 15.9 13.4 11.1 73 2.6 WSW 15 26 8 14 1022.0 1021.8 0.4
29/02:00pm 16.7 14.6 12.3 75 2.4 WSW 15 24 8 13 1022.0 1021.8 0.2
29/01:30pm 17.0 14.8 12.1 73 2.7 WSW 15 24 8 13 1022.1 1021.9 0.2
29/01:00pm 15.6 14.1 13.1 85 1.4 W 13 20 7 11 1022.6 1022.4 0.2
29/12:30pm 14.0 12.3 12.6 91 0.8 WSW 13 22 7 12 1023.0 1022.9 0.2
29/12:00pm 14.9 13.2 12.4 85 1.4 WSW 13 22 7 12 1023.2 1023.1 0.2
29/11:30am 15.1 12.5 13.1 88 1.1 W 19 30 10 16 1023.3 1023.2 0.2
29/11:00am 14.8 12.7 12.3 85 1.4 WSW 15 22 8 12 1023.2 1023.1 0.2
29/10:30am 14.8 12.3 12.3 85 1.4 W 17 22 9 12 1023.0 1022.9 0.2
29/10:00am 14.6 12.5 13.6 94 0.6 W 17 24 9 13 1023.2 1023.1 0.2
29/09:30am 13.6 11.7 13.1 97 0.3 W 15 22 8 12 1023.1 1023.0 0.2
29/09:00am 13.2 11.6 12.7 97 0.3 WSW 13 30 7 16 1023.0 1022.9 0.2
29/08:30am 13.1 10.7 12.6 97 0.3 W 17 30 9 16 1022.8 1022.6 0.0
29/08:00am 13.1 11.4 12.6 97 0.3 W 13 20 7 11 1022.4 1022.2 0.0
29/07:30am 13.0 10.9 12.4 96 0.3 W 15 20 8 11 1022.2 1022.0 0.0
29/07:00am 12.9 10.4 12.3 96 0.3 W 17 28 9 15 1022.0 1021.8 0.0
29/06:30am 12.9 10.3 12.1 95 0.4 WNW 17 22 9 12 1021.7 1021.5 0.0
29/06:00am 13.0 10.4 12.1 94 0.5 W 17 26 9 14 1021.7 1021.5 0.0
29/05:30am 13.0 10.7 11.7 92 0.7 WNW 15 24 8 13 1021.6 1021.4 0.0
29/05:00am 13.2 10.1 11.6 90 0.9 W 19 28 10 15 1021.4 1021.2 0.0
29/04:30am 13.2 10.0 11.4 89 1.0 WNW 19 30 10 16 1021.3 1021.1 0.0
29/04:00am 13.1 9.8 11.5 90 0.9 WNW 20 30 11 16 1021.3 1021.1 0.0
29/03:30am 13.1 9.3 11.2 88 1.0 WNW 22 33 12 18 1021.2 1021.0 0.0
29/03:00am 13.3 9.1 11.0 86 1.2 WNW 24 39 13 21 1021.3 1021.1 0.0
29/02:30am 13.1 9.8 11.5 90 0.9 WNW 20 30 11 16 1021.6 1021.4 0.0
29/02:00am 13.0 9.6 11.4 90 0.9 WNW 20 30 11 16 1022.0 1021.8 0.0
29/01:30am 13.2 9.7 10.9 86 1.2 W 20 33 11 18 1022.1 1021.9 0.0
29/01:00am 12.8 9.2 10.7 87 1.1 WNW 20 30 11 16 1021.9 1021.7 0.0
29/12:30am 13.4 9.5 10.8 84 1.4 WNW 22 39 12 21 1022.1 1021.9 0.0
29/12:00am 13.5 9.6 10.9 84 1.4 W 22 39 12 21 1022.2 1022.0 0.0
 
Date/Time
EST
Temp
°C
App
Temp
°C
Dew
Point
°C
Rel
Hum
%
Delta-T
°C
Wind Press
QNH
hPa
Press
MSL
hPa
Rain since
9am
mm
Dir  Spd
km/h
Gust
km/h
Spd
kts
Gust
kts
28/11:30pm 13.6 10.2 10.6 82 1.6 WNW 19 32 10 17 1022.2 1022.0 0.0
28/11:00pm 13.7 10.2 10.9 83 1.5 W 20 32 11 17 1022.5 1022.3 0.0
28/10:30pm 13.6 10.1 11.0 84 1.4 WNW 20 30 11 16 1022.7 1022.5 0.0
28/10:00pm 13.7 10.3 11.2 85 1.3 W 20 35 11 19 1022.8 1022.6 0.0
28/09:30pm 13.8 10.2 11.8 88 1.1 W 22 33 12 18 1022.9 1022.8 0.0
28/09:00pm 14.1 10.5 12.0 87 1.1 W 22 30 12 16 1022.8 1022.6 0.0
28/08:30pm 14.3 11.4 12.2 87 1.2 W 19 32 10 17 1022.8 1022.6 0.0
28/08:00pm 14.6 13.4 12.8 89 1.0 W 11 19 6 10 1022.9 1022.8 0.0
28/07:30pm 14.6 13.0 12.8 89 1.0 WNW 13 19 7 10 1022.9 1022.8 0.0
28/07:00pm 14.6 13.7 12.6 88 1.1 WNW 9 15 5 8 1022.8 1022.6 0.0
28/06:30pm 14.5 12.7 12.2 86 1.3 WNW 13 17 7 9 1022.6 1022.4 0.0
28/06:00pm 14.7 12.2 12.2 85 1.4 W 17 24 9 13 1022.5 1022.3 0.0
28/05:30pm 15.1 13.4 12.6 85 1.4 W 13 22 7 12 1022.4 1022.2 0.0
28/05:00pm 15.3 12.9 12.6 84 1.5 W 17 22 9 12 1022.4 1022.2 0.0
28/04:30pm 15.8 13.0 12.5 81 1.8 WSW 19 26 10 14 1022.4 1022.2 0.0
28/04:00pm 16.0 14.1 12.9 82 1.7 W 15 26 8 14 1022.2 1022.0 0.0
28/03:30pm 16.3 15.0 13.8 85 1.4 W 13 22 7 12 1022.3 1022.1 0.0
28/03:00pm 15.3 12.6 12.8 85 1.4 W 19 28 10 15 1022.3 1022.1 0.0
28/02:30pm 16.3 13.3 12.5 78 2.1 W 20 33 11 18 1022.3 1022.1 0.0
28/02:00pm 16.3 13.2 12.3 77 2.2 W 20 32 11 17 1022.3 1022.1 0.0
28/01:30pm 15.5 12.4 12.3 81 1.8 W 20 33 11 18 1022.7 1022.5 0.0
28/01:00pm 15.7 12.6 12.1 79 2.0 W 20 30 11 16 1022.8 1022.6 0.0
28/12:30pm 14.9 11.3 12.0 83 1.6 W 22 33 12 18 1023.2 1023.1 0.0
28/12:00pm 15.1 12.2 12.8 86 1.3 WNW 20 28 11 15 1023.6 1023.5 0.0
28/11:30am 14.5 11.3 11.8 84 1.5 W 20 32 11 17 1023.7 1023.6 0.0
28/11:00am 14.5 11.5 12.0 85 1.4 W 19 30 10 16 1023.9 1023.8 0.0
28/10:30am 14.5 11.9 12.0 85 1.4 W 17 24 9 13 1024.0 1023.9 0.0
28/10:00am 13.9 11.6 11.8 87 1.1 WNW 15 22 8 12 1024.0 1023.9 0.0
28/09:30am 13.4 10.3 11.6 89 1.0 WNW 19 26 10 14 1023.9 1023.8 0.0
28/09:00am 13.3 10.9 11.4 88 1.0 WNW 15 26 8 14 1023.8 1023.7 0.2
28/08:30am 12.8 9.9 10.9 88 1.0 WNW 17 24 9 13 1023.5 1023.4 0.2
28/08:00am 12.5 9.4 10.2 86 1.2 WNW 17 22 9 12 1023.3 1023.2 0.2
28/07:30am 12.1 9.2 9.7 85 1.2 WNW 15 24 8 13 1023.1 1023.0 0.2
28/07:00am 11.9 8.9 9.3 84 1.3 WNW 15 20 8 11 1023.0 1022.9 0.2
28/06:30am 11.7 8.3 9.3 85 1.2 WNW 17 26 9 14 1022.6 1022.4 0.2
28/06:00am 11.5 9.3 9.4 87 1.1 NW 11 17 6 9 1022.6 1022.4 0.2
28/05:30am 11.3 9.5 9.4 88 1.0 NW 9 13 5 7 1022.6 1022.4 0.2
28/05:00am 11.2 9.1 9.6 90 0.8 NW 11 15 6 8 1022.6 1022.4 0.2
28/04:30am 11.1 9.3 9.5 90 0.8 NNW 9 13 5 7 1022.3 1022.1 0.2
28/04:00am 10.9 8.7 9.3 90 0.8 NW 11 17 6 9 1022.3 1022.1 0.2
28/03:30am 10.9 8.7 9.5 91 0.7 NW 11 17 6 9 1022.5 1022.3 0.2
28/03:00am 10.7 8.5 9.3 91 0.7 WNW 11 15 6 8 1022.7 1022.5 0.2
28/02:30am 10.6 7.6 9.2 91 0.7 WNW 15 20 8 11 1022.7 1022.5 0.2
28/02:00am 10.9 8.3 9.5 91 0.7 WNW 13 20 7 11 1022.8 1022.6 0.2
28/01:30am 10.8 7.5 9.6 92 0.6 WNW 17 24 9 13 1023.0 1022.9 0.2
28/01:00am 10.6 8.0 9.5 93 0.6 WNW 13 22 7 12 1023.1 1023.0 0.2
28/12:30am 10.7 8.6 9.6 93 0.6 W 11 17 6 9 1023.5 1023.4 0.0
28/12:00am 10.7 8.1 9.5 92 0.6 WNW 13 19 7 10 1023.3 1023.2 0.0
 
Date/Time
EST
Temp
°C
App
Temp
°C
Dew
Point
°C
Rel
Hum
%
Delta-T
°C
Wind Press
QNH
hPa
Press
MSL
hPa
Rain since
9am
mm
Dir  Spd
km/h
Gust
km/h
Spd
kts
Gust
kts
27/11:30pm 10.5 7.2 9.4 93 0.6 W 17 24 9 13 1023.3 1023.2 0.0
27/11:00pm 10.3 7.3 9.1 92 0.6 WNW 15 20 8 11 1023.4 1023.3 0.0
27/10:30pm 10.4 8.0 8.5 88 0.9 WNW 11 17 6 9 1023.3 1023.2 0.0
27/10:00pm 10.3 7.8 8.4 88 0.9 WNW 11 19 6 10 1023.4 1023.3 0.0
27/09:30pm 9.9 7.4 8.0 88 0.9 WNW 11 17 6 9 1023.3 1023.2 0.0
27/09:00pm 10.1 6.7 7.5 84 1.3 WNW 15 20 8 11 1023.2 1023.1 0.0
27/08:30pm 10.4 7.4 7.6 83 1.4 WNW 13 17 7 9 1023.3 1023.2 0.0
27/08:00pm 10.5 7.9 7.6 82 1.4 W 11 19 6 10 1023.3 1023.2 0.0
27/07:30pm 9.9 7.6 7.5 85 1.2 WNW 9 13 5 7 1023.2 1023.1 0.0
27/07:00pm 10.1 7.5 7.7 85 1.2 W 11 17 6 9 1023.1 1023.0 0.0
27/06:30pm 10.6 8.8 7.8 83 1.4 W 7 13 4 7 1023.1 1023.0 0.0
27/06:00pm 10.7 9.1 7.9 83 1.4 WSW 6 9 3 5 1023.1 1023.0 0.0
27/05:30pm 10.8 9.2 7.9 82 1.4 WSW 6 9 3 5 1022.8 1022.6 0.0
27/05:00pm 10.8 9.0 8.0 83 1.4 W 7 11 4 6 1022.5 1022.3 0.0
27/04:30pm 10.5 7.9 7.9 84 1.3 W 11 20 6 11 1022.6 1022.4 0.0
27/04:00pm 11.0 8.6 7.1 77 1.9 WNW 9 15 5 8 1022.7 1022.5 0.0
27/03:30pm 10.9 8.8 6.8 76 2.0 WNW 7 13 4 7 1023.0 1022.9 0.0
27/03:00pm 10.6 8.6 6.9 78 1.8 W 7 11 4 6 1023.2 1023.1 0.0
27/02:30pm 10.3 8.3 7.2 81 1.5 W 7 11 4 6 1023.4 1023.3 0.0
27/02:00pm 9.7 6.5 6.8 82 1.4 W 13 22 7 12 1023.6 1023.5 0.0
27/01:30pm 11.1 7.5 6.8 75 2.1 W 15 19 8 10 1023.3 1023.2 0.0
27/01:00pm 10.7 7.0 6.1 73 2.2 WSW 15 26 8 14 1023.3 1023.2 0.0
27/12:30pm 10.9 6.9 5.0 67 2.7 WSW 15 26 8 14 1023.5 1023.4 0.0
27/12:00pm 11.5 7.5 4.9 64 3.0 SW 15 24 8 13 1023.7 1023.6 0.0
27/11:30am 11.8 9.2 6.1 68 2.7 WSW 9 15 5 8 1023.6 1023.5 0.0
27/11:00am 11.2 6.8 4.7 64 3.0 WSW 17 30 9 16 1023.9 1023.8 0.0
27/10:30am 11.1 7.6 5.6 69 2.6 SW 13 20 7 11 1023.8 1023.7 0.0
27/10:00am 10.4 7.4 6.0 74 2.1 W 11 19 6 10 1023.7 1023.6 0.0
27/09:30am 8.9 5.5 5.8 81 1.4 W 13 19 7 10 1023.7 1023.6 0.0
27/09:00am 8.2 4.6 5.1 81 1.4 W 13 20 7 11 1023.8 1023.7 0.2
27/08:30am 8.1 4.9 4.9 80 1.4 WSW 11 19 6 10 1023.3 1023.2 0.2
27/08:00am 7.0 2.9 4.1 82 1.3 W 15 22 8 12 1023.0 1022.9 0.2
27/07:30am 6.0 1.7 3.5 84 1.1 W 15 20 8 11 1022.7 1022.5 0.2
27/07:00am 5.8 1.5 3.5 85 1.0 W 15 20 8 11 1022.5 1022.3 0.2
27/06:30am 6.0 1.8 3.8 86 0.9 W 15 20 8 11 1022.2 1022.0 0.2
27/06:00am 6.1 1.5 3.6 84 1.1 W 17 22 9 12 1022.0 1021.8 0.2
27/05:30am 5.8 1.9 3.5 85 1.0 W 13 20 7 11 1021.6 1021.4 0.2
27/05:00am 6.0 1.7 3.5 84 1.1 W 15 22 8 12 1021.4 1021.2 0.2
27/04:30am 5.7 1.1 3.5 86 0.9 W 17 24 9 13 1021.0 1020.8 0.2
27/04:00am 5.5 1.2 3.3 86 0.9 W 15 20 8 11 1020.8 1020.6 0.2
27/03:30am 5.6 1.3 3.3 85 1.0 W 15 22 8 12 1020.8 1020.6 0.2
27/03:00am 5.8 1.9 3.3 84 1.1 W 13 19 7 10 1021.0 1020.8 0.2
27/02:30am 5.6 1.4 3.6 87 0.9 W 15 20 8 11 1020.9 1020.7 0.2
27/02:00am 5.9 1.3 3.9 87 0.9 W 17 24 9 13 1021.0 1020.8 0.2
27/01:30am 6.2 2.8 4.0 86 0.9 W 11 17 6 9 1020.7 1020.5 0.2
27/01:00am 5.7 1.9 3.9 88 0.8 W 13 20 7 11 1020.7 1020.5 0.2
27/12:30am 5.7 1.4 3.5 86 0.9 W 15 20 8 11 1020.6 1020.4 0.2
27/12:00am 6.0 1.8 3.7 85 1.0 W 15 24 8 13 1020.5 1020.3 0.2

Latest Capital City Observations: Canberra | Sydney | Melbourne | Brisbane | Adelaide | Perth | Hobart | Darwin

Other Formats:

Comma delimited format used in spreadsheet applications
http://www.bom.gov.au/fwo/IDV60901/IDV60901.94863.axf

JavaScript Object Notation format (JSON) in row-major order
http://www.bom.gov.au/fwo/IDV60901/IDV60901.94863.json